createdAt,value
2018-02-27T00:00:37.469Z,59.28
2018-02-27T00:03:03.358Z,59.67
2018-02-27T00:05:31.034Z,59.63
2018-02-27T00:07:56.932Z,59.79
2018-02-27T00:10:25.680Z,59.89
2018-02-27T00:12:51.508Z,59.94
2018-02-27T00:15:21.069Z,60.04
2018-02-27T00:17:46.930Z,59.74
2018-02-27T00:20:12.794Z,59.90
2018-02-27T00:22:38.656Z,59.83
2018-02-27T00:25:04.552Z,59.68
2018-02-27T00:27:32.197Z,60.05
2018-02-27T00:29:58.058Z,60.04
2018-02-27T00:32:27.549Z,60.04
2018-02-27T00:34:53.405Z,60.32
2018-02-27T00:37:23.136Z,60.14
2018-02-27T00:39:49.028Z,60.14
2018-02-27T00:42:16.379Z,60.39
2018-02-27T00:44:42.309Z,60.62
2018-02-27T00:47:11.121Z,60.52
2018-02-27T00:49:36.964Z,60.68
2018-02-27T00:52:07.050Z,60.71
2018-02-27T00:54:32.907Z,60.67
2018-02-27T00:56:58.782Z,60.85
2018-02-27T00:59:24.655Z,60.57
2018-02-27T01:01:50.535Z,60.56
2018-02-27T01:04:18.283Z,60.45
2018-02-27T01:06:44.175Z,60.34
2018-02-27T01:09:13.836Z,60.66
2018-02-27T01:11:39.702Z,60.50
2018-02-27T01:14:07.269Z,60.47
2018-02-27T01:16:33.110Z,60.43
2018-02-27T01:19:06.453Z,60.33
2018-02-27T01:21:32.350Z,60.35
2018-02-27T01:23:58.230Z,60.20
2018-02-27T01:26:24.064Z,60.39
2018-02-27T01:28:51.262Z,60.50
2018-02-27T01:31:17.114Z,60.52
2018-02-27T01:33:42.994Z,60.52
2018-02-27T01:36:08.857Z,60.58
2018-02-27T01:38:34.724Z,60.62
2018-02-27T01:41:03.940Z,60.57
2018-02-27T01:43:29.830Z,60.72
2018-02-27T01:45:59.191Z,60.75
2018-02-27T01:48:25.066Z,60.84
2018-02-27T01:51:04.800Z,61.09
2018-02-27T01:53:30.665Z,60.83
2018-02-27T01:55:56.516Z,60.76
2018-02-27T01:58:22.388Z,60.84
2018-02-27T02:00:48.250Z,61.40
2018-02-27T02:03:14.123Z,61.81
2018-02-27T02:05:39.972Z,61.69
2018-02-27T02:08:05.848Z,61.92
2018-02-27T02:10:31.710Z,62.41
2018-02-27T02:12:57.599Z,62.57
2018-02-27T02:15:23.468Z,62.72
2018-02-27T02:17:49.331Z,63.56
2018-02-27T02:20:15.226Z,63.16
2018-02-27T02:22:43.118Z,63.18
2018-02-27T02:25:09.002Z,63.10
2018-02-27T02:27:38.584Z,62.96
2018-02-27T02:30:04.436Z,62.96
2018-02-27T02:32:33.932Z,63.14
2018-02-27T02:34:59.790Z,63.29
2018-02-27T02:37:27.693Z,63.16
2018-02-27T02:39:53.538Z,63.20
2018-02-27T02:42:23.314Z,63.39
2018-02-27T02:44:49.150Z,63.31
2018-02-27T02:47:15.004Z,63.50
2018-02-27T02:49:40.872Z,63.53
2018-02-27T02:52:06.777Z,63.38
2018-02-27T02:54:33.747Z,63.35
2018-02-27T02:56:59.597Z,63.23
2018-02-27T02:59:28.939Z,62.96
2018-02-27T03:01:54.816Z,62.88
2018-02-27T03:04:24.522Z,62.72
2018-02-27T03:06:50.375Z,62.54
2018-02-27T03:09:17.443Z,62.52
2018-02-27T03:11:43.320Z,62.72
2018-02-27T03:14:12.644Z,62.96
2018-02-27T03:16:38.514Z,62.96
2018-02-27T03:19:08.227Z,62.88
2018-02-27T03:21:34.067Z,63.40
2018-02-27T03:23:59.921Z,63.28
2018-02-27T03:26:25.775Z,63.47
2018-02-27T03:28:51.632Z,63.40
2018-02-27T03:31:18.892Z,63.50
2018-02-27T03:33:44.770Z,63.31
2018-02-27T03:36:14.241Z,63.11
2018-02-27T03:38:40.124Z,63.27
2018-02-27T03:41:09.707Z,63.34
2018-02-27T03:43:35.549Z,63.07
2018-02-27T03:46:03.052Z,63.24
2018-02-27T03:48:28.915Z,63.48
2018-02-27T03:50:57.768Z,63.49
2018-02-27T03:53:23.643Z,63.62
2018-02-27T03:55:53.271Z,63.58
2018-02-27T03:58:19.106Z,63.27
2018-02-27T04:00:44.971Z,63.07
2018-02-27T04:03:10.825Z,63.24
2018-02-27T04:05:36.673Z,63.20
2018-02-27T04:08:04.366Z,63.30
2018-02-27T04:10:30.230Z,63.69
2018-02-27T04:13:00.008Z,63.81
2018-02-27T04:15:25.847Z,63.69
2018-02-27T04:17:55.093Z,63.53
2018-02-27T04:20:20.951Z,63.59
2018-02-27T04:22:48.326Z,63.66
2018-02-27T04:25:14.169Z,63.75
2018-02-27T04:27:42.863Z,63.66
2018-02-27T04:30:08.680Z,63.75
2018-02-27T04:32:38.065Z,63.91
2018-02-27T04:35:03.972Z,63.94
2018-02-27T04:37:29.842Z,63.76
2018-02-27T04:39:55.686Z,63.67
2018-02-27T04:42:21.577Z,63.73
2018-02-27T04:44:49.133Z,63.58
2018-02-27T04:47:14.989Z,63.68
2018-02-27T04:52:11.816Z,63.94
2018-02-27T04:54:39.373Z,64.03
2018-02-27T04:57:05.245Z,63.91
2018-02-27T04:59:34.950Z,63.65
2018-02-27T05:02:00.828Z,63.27
2018-02-27T05:04:28.512Z,63.12
2018-02-27T05:06:54.415Z,62.99
2018-02-27T05:09:23.380Z,62.73
2018-02-27T05:11:49.205Z,62.81
2018-02-27T05:14:15.110Z,62.65
2018-02-27T05:16:40.987Z,62.64
2018-02-27T05:19:06.871Z,62.26
2018-02-27T05:21:34.596Z,62.49
2018-02-27T05:26:50.394Z,62.57
2018-02-27T05:29:16.308Z,62.62
2018-02-27T05:31:42.167Z,62.62
2018-02-27T05:34:08.058Z,62.59
2018-02-27T05:36:33.924Z,62.20
2018-02-27T05:38:59.783Z,62.46
2018-02-27T05:41:25.642Z,62.62
2018-02-27T05:43:51.525Z,62.89
2018-02-27T05:46:17.408Z,63.27
2018-02-27T05:48:43.481Z,63.07
2018-02-27T05:51:09.386Z,63.24
2018-02-27T05:53:35.276Z,62.88
2018-02-27T05:56:01.122Z,62.88
2018-02-27T05:58:26.972Z,62.60
2018-02-27T06:00:52.848Z,62.42
2018-02-27T06:03:18.745Z,62.57
2018-02-27T06:05:44.600Z,62.64
2018-02-27T06:08:10.494Z,62.68
2018-02-27T06:10:36.379Z,62.68
2018-02-27T06:13:05.658Z,62.67
2018-02-27T06:15:31.494Z,62.68
2018-02-27T06:17:58.771Z,62.91
2018-02-27T06:20:24.612Z,62.82
2018-02-27T06:22:53.402Z,63.08
2018-02-27T06:25:19.252Z,62.88
2018-02-27T06:27:45.163Z,62.73
2018-02-27T06:30:11.048Z,62.48
2018-02-27T06:32:36.929Z,62.76
2018-02-27T06:35:05.896Z,63.05
2018-02-27T06:37:31.731Z,63.29
2018-02-27T06:40:01.468Z,63.19
2018-02-27T06:42:27.316Z,62.87
2018-02-27T06:44:54.609Z,62.99
2018-02-27T06:47:20.448Z,62.88
2018-02-27T06:49:49.726Z,63.06
2018-02-27T06:52:15.620Z,62.63
2018-02-27T06:54:44.625Z,62.76
2018-02-27T06:57:10.466Z,62.71
2018-02-27T06:59:39.780Z,62.93
2018-02-27T07:02:05.645Z,62.81
2018-02-27T07:04:31.521Z,62.83
2018-02-27T07:06:57.363Z,63.00
2018-02-27T07:09:23.224Z,62.97
2018-02-27T07:11:52.373Z,62.86
2018-02-27T07:14:18.221Z,63.04
2018-02-27T07:16:45.706Z,62.77
2018-02-27T07:19:11.577Z,62.40
2018-02-27T07:21:41.137Z,61.98
2018-02-27T07:24:07.005Z,61.36
2018-02-27T07:26:34.621Z,60.95
2018-02-27T07:29:00.462Z,60.73
2018-02-27T07:31:29.105Z,59.73
2018-02-27T07:33:54.947Z,59.41
2018-02-27T07:38:51.666Z,58.39
2018-02-27T07:44:09.332Z,59.00
2018-02-27T07:46:35.228Z,58.08
2018-02-27T07:49:01.111Z,58.77
2018-02-27T07:51:26.941Z,58.70
2018-02-27T07:53:52.819Z,58.77
2018-02-27T07:56:18.670Z,58.54
2018-02-27T07:58:44.535Z,57.57
2018-02-27T08:01:10.374Z,57.23
2018-02-27T08:03:36.233Z,55.84
2018-02-27T08:06:02.110Z,53.99
2018-02-27T08:08:28.002Z,52.40
2018-02-27T08:10:53.860Z,51.05
2018-02-27T08:13:19.685Z,49.97
2018-02-27T08:15:45.549Z,48.91
2018-02-27T08:18:11.415Z,47.88
2018-02-27T08:20:37.279Z,48.12
2018-02-27T08:23:03.133Z,46.87
2018-02-27T08:25:28.987Z,45.89
2018-02-27T08:27:54.820Z,46.68
2018-02-27T08:30:20.657Z,47.29
2018-02-27T08:32:46.496Z,47.75
2018-02-27T08:35:12.308Z,49.47
2018-02-27T08:37:38.232Z,50.41
2018-02-27T08:40:05.700Z,49.88
2018-02-27T08:42:31.529Z,50.12
2018-02-27T08:45:00.454Z,49.16
2018-02-27T08:47:26.328Z,47.41
2018-02-27T08:49:55.833Z,44.34
2018-02-27T08:52:21.696Z,42.15
2018-02-27T08:54:47.537Z,41.13
2018-02-27T08:57:13.426Z,39.34
2018-02-27T08:59:39.261Z,39.40
2018-02-27T09:02:06.375Z,37.68
2018-02-27T09:04:32.244Z,37.02
2018-02-27T09:07:01.196Z,38.00
2018-02-27T09:09:27.064Z,38.03
2018-02-27T09:14:23.835Z,37.73
2018-02-27T09:16:51.367Z,35.91
2018-02-27T09:19:17.861Z,35.16
2018-02-27T09:21:45.145Z,34.67
2018-02-27T09:24:11.532Z,36.39
2018-02-27T09:26:40.855Z,36.24
2018-02-27T09:29:06.716Z,35.53
2018-02-27T09:31:32.588Z,35.06
2018-02-27T09:33:58.481Z,32.99
2018-02-27T09:36:24.331Z,31.91
2018-02-27T09:38:53.325Z,30.68
2018-02-27T09:41:19.191Z,30.83
2018-02-27T09:43:46.584Z,30.46
2018-02-27T09:46:12.427Z,33.67
2018-02-27T09:48:42.199Z,35.27
2018-02-27T09:51:08.129Z,37.27
2018-02-27T09:53:37.215Z,39.30
2018-02-27T09:56:03.062Z,39.31
2018-02-27T09:58:30.576Z,39.84
2018-02-27T10:00:56.439Z,40.50
2018-02-27T10:03:25.186Z,41.02
2018-02-27T10:05:51.046Z,42.37
2018-02-27T10:08:16.969Z,43.16
2018-02-27T10:10:42.764Z,41.77
2018-02-27T10:13:08.616Z,41.65
2018-02-27T10:15:38.415Z,42.40
2018-02-27T10:18:04.283Z,40.82
2018-02-27T10:20:31.850Z,41.25
2018-02-27T10:22:57.721Z,41.63
2018-02-27T10:25:27.156Z,42.65
2018-02-27T10:27:52.997Z,43.39
2018-02-27T10:30:22.712Z,44.02
2018-02-27T10:32:48.541Z,43.50
2018-02-27T10:35:16.297Z,44.33
2018-02-27T10:37:42.154Z,44.50
2018-02-27T10:40:12.032Z,43.70
2018-02-27T10:42:37.892Z,43.64
2018-02-27T10:45:03.748Z,44.43
2018-02-27T10:47:29.610Z,43.98
2018-02-27T10:49:55.462Z,43.47
2018-02-27T10:52:22.199Z,43.04
2018-02-27T10:54:48.062Z,41.55
2018-02-27T10:59:44.803Z,40.73
2018-02-27T11:02:12.004Z,41.44
2018-02-27T11:04:37.896Z,42.35
2018-02-27T11:07:06.666Z,42.46
2018-02-27T11:09:32.503Z,42.19
2018-02-27T11:12:01.208Z,42.31
2018-02-27T11:14:27.062Z,46.21
2018-02-27T11:16:56.394Z,43.82
2018-02-27T11:19:22.254Z,44.27
2018-02-27T11:21:48.105Z,42.90
2018-02-27T11:24:13.962Z,42.50
2018-02-27T11:26:39.780Z,42.67
2018-02-27T11:29:09.383Z,42.15
2018-02-27T11:31:35.274Z,43.34
2018-02-27T11:34:04.149Z,42.65
2018-02-27T11:36:29.997Z,43.95
2018-02-27T11:38:57.433Z,45.13
2018-02-27T11:41:23.304Z,45.25
2018-02-27T11:43:52.984Z,45.25
2018-02-27T11:46:18.827Z,44.95
2018-02-27T11:48:49.229Z,44.91
2018-02-27T11:51:15.126Z,44.55
2018-02-27T11:53:41.480Z,44.24
2018-02-27T11:56:07.328Z,44.15
2018-02-27T11:58:33.194Z,42.99
2018-02-27T12:00:59.060Z,42.77
2018-02-27T12:03:24.934Z,41.60
2018-02-27T12:05:54.309Z,41.54
2018-02-27T12:08:20.159Z,41.87
2018-02-27T12:10:48.056Z,39.89
2018-02-27T12:13:13.890Z,39.56
2018-02-27T12:15:43.564Z,39.60
2018-02-27T12:18:09.402Z,39.74
2018-02-27T12:20:37.138Z,39.70
2018-02-27T12:23:02.992Z,40.08
2018-02-27T12:25:31.756Z,40.59
2018-02-27T12:27:57.631Z,40.50
2018-02-27T12:30:26.491Z,40.17
2018-02-27T12:32:52.340Z,41.09
2018-02-27T12:35:18.202Z,40.73
2018-02-27T12:37:44.041Z,40.22
2018-02-27T12:40:09.897Z,39.33
2018-02-27T12:42:39.549Z,36.72
2018-02-27T12:45:05.396Z,36.20
2018-02-27T12:47:33.018Z,37.54
2018-02-27T12:49:58.853Z,36.71
2018-02-27T12:52:27.537Z,36.23
2018-02-27T12:54:53.418Z,36.35
2018-02-27T12:59:50.036Z,38.19
2018-02-27T13:02:17.270Z,37.98
2018-02-27T13:04:43.092Z,37.69
2018-02-27T13:07:12.448Z,37.23
2018-02-27T13:09:38.331Z,37.84
2018-02-27T13:12:04.233Z,37.57
2018-02-27T13:14:30.082Z,38.60
2018-02-27T13:16:55.945Z,37.48
2018-02-27T13:19:24.999Z,37.51
2018-02-27T13:21:50.855Z,37.79
2018-02-27T13:24:18.449Z,36.14
2018-02-27T13:26:44.310Z,35.55
2018-02-27T13:29:13.089Z,36.53
2018-02-27T13:31:38.943Z,36.27
2018-02-27T13:34:08.277Z,36.01
2018-02-27T13:36:34.150Z,36.16
2018-02-27T13:39:03.774Z,35.82
2018-02-27T13:41:29.608Z,36.39
2018-02-27T13:43:57.073Z,35.77
2018-02-27T13:46:22.938Z,36.27
2018-02-27T13:48:49.652Z,35.31
2018-02-27T13:51:15.577Z,34.40
2018-02-27T13:53:41.425Z,35.23
2018-02-27T13:56:08.803Z,36.95
2018-02-27T13:58:34.647Z,35.92
2018-02-27T14:01:03.533Z,35.40
2018-02-27T14:03:29.374Z,35.34
2018-02-27T14:05:58.337Z,35.75
2018-02-27T14:08:24.211Z,36.61
2018-02-27T14:10:53.612Z,37.23
2018-02-27T14:13:19.452Z,37.11
2018-02-27T14:15:49.220Z,37.36
2018-02-27T14:18:15.122Z,37.48
2018-02-27T14:20:43.969Z,37.30
2018-02-27T14:23:09.810Z,37.19
2018-02-27T14:25:35.673Z,36.15
2018-02-27T14:28:01.514Z,35.17
2018-02-27T14:30:27.365Z,34.08
2018-02-27T14:32:54.165Z,33.97
2018-02-27T14:35:20.026Z,34.17
2018-02-27T14:37:49.649Z,32.78
2018-02-27T14:40:15.492Z,33.45
2018-02-27T14:42:44.369Z,33.80
2018-02-27T14:45:10.227Z,33.99
2018-02-27T14:47:39.788Z,35.04
2018-02-27T14:50:05.683Z,35.76
2018-02-27T14:52:33.059Z,35.50
2018-02-27T14:54:58.918Z,35.66
2018-02-27T14:57:28.625Z,37.00
2018-02-27T14:59:54.463Z,37.25
2018-02-27T15:02:20.329Z,37.82
2018-02-27T15:04:46.180Z,36.85
2018-02-27T15:07:12.000Z,36.63
2018-02-27T15:09:39.762Z,36.47
2018-02-27T15:12:05.611Z,36.95
2018-02-27T15:14:35.079Z,37.05
2018-02-27T15:17:00.908Z,36.97
2018-02-27T15:19:30.340Z,36.88
2018-02-27T15:21:56.185Z,37.08
2018-02-27T15:24:23.605Z,36.95
2018-02-27T15:26:49.449Z,37.31
2018-02-27T15:29:18.289Z,38.44
2018-02-27T15:31:44.174Z,38.12
2018-02-27T15:34:13.558Z,37.41
2018-02-27T15:36:39.433Z,39.18
2018-02-27T15:39:05.260Z,39.00
2018-02-27T15:41:31.132Z,39.43
2018-02-27T15:43:57.014Z,39.51
2018-02-27T15:46:25.851Z,40.04
2018-02-27T15:48:52.896Z,40.42
2018-02-27T15:51:20.149Z,40.74
2018-02-27T15:53:46.017Z,40.80
2018-02-27T15:56:15.111Z,40.70
2018-02-27T15:58:40.960Z,41.02
2018-02-27T16:01:10.471Z,40.97
2018-02-27T16:03:36.323Z,40.51
2018-02-27T16:06:03.536Z,41.32
2018-02-27T16:08:29.370Z,41.77
2018-02-27T16:13:26.180Z,40.79
2018-02-27T16:15:52.097Z,41.14
2018-02-27T16:18:17.898Z,40.70
2018-02-27T16:20:43.765Z,40.25
2018-02-27T16:23:10.449Z,39.73
2018-02-27T16:25:36.338Z,40.59
2018-02-27T16:28:05.358Z,40.62
2018-02-27T16:30:31.226Z,40.15
2018-02-27T16:33:00.621Z,39.99
2018-02-27T16:35:26.470Z,39.56
2018-02-27T16:37:55.641Z,39.97
2018-02-27T16:40:21.580Z,41.06
2018-02-27T16:42:50.750Z,40.24
2018-02-27T16:45:16.669Z,41.32
2018-02-27T16:47:43.887Z,41.63
2018-02-27T16:50:09.741Z,41.52
2018-02-27T16:52:35.613Z,41.64
2018-02-27T16:55:01.460Z,41.78
2018-02-27T16:57:27.291Z,42.87
2018-02-27T16:59:56.918Z,41.78
2018-02-27T17:02:22.779Z,42.17
2018-02-27T17:04:51.877Z,42.78
2018-02-27T17:07:17.694Z,42.93
2018-02-27T17:09:44.980Z,43.56
2018-02-27T17:12:10.862Z,43.71
2018-02-27T17:14:39.974Z,44.26
2018-02-27T17:17:05.854Z,43.87
2018-02-27T17:19:35.072Z,43.75
2018-02-27T17:22:01.010Z,44.27
2018-02-27T17:24:30.411Z,44.53
2018-02-27T17:26:56.250Z,44.38
2018-02-27T17:29:22.101Z,44.74
2018-02-27T17:31:47.975Z,44.82
2018-02-27T17:34:13.854Z,44.66
2018-02-27T17:36:40.867Z,44.62
2018-02-27T17:39:08.069Z,44.59
2018-02-27T17:41:35.579Z,44.96
2018-02-27T17:44:01.458Z,44.91
2018-02-27T17:46:30.215Z,45.60
2018-02-27T17:48:56.100Z,45.53
2018-02-27T17:51:25.572Z,45.79
2018-02-27T17:53:51.404Z,46.39
2018-02-27T17:56:20.525Z,47.34
2018-02-27T17:58:46.427Z,47.68
2018-02-27T18:01:15.441Z,48.04
2018-02-27T18:03:41.312Z,47.67
2018-02-27T18:06:07.296Z,47.94
2018-02-27T18:08:33.256Z,47.95
2018-02-27T18:10:59.145Z,47.51
2018-02-27T18:13:26.835Z,48.04
2018-02-27T18:15:52.728Z,48.14
2018-02-27T18:18:21.952Z,47.87
2018-02-27T18:20:47.813Z,48.05
2018-02-27T18:23:17.014Z,48.37
2018-02-27T18:25:42.882Z,48.19
2018-02-27T18:28:10.309Z,48.15
2018-02-27T18:30:36.158Z,48.15
2018-02-27T18:33:05.639Z,48.29
2018-02-27T18:35:31.521Z,48.43
2018-02-27T18:38:00.464Z,48.68
2018-02-27T18:40:26.321Z,48.82
2018-02-27T18:42:52.196Z,48.59
2018-02-27T18:45:18.069Z,48.69
2018-02-27T18:47:43.953Z,48.63
2018-02-27T18:50:13.059Z,49.01
2018-02-27T18:52:38.923Z,48.81
2018-02-27T18:55:06.170Z,49.03
2018-02-27T18:57:32.036Z,49.21
2018-02-27T19:00:00.837Z,49.04
2018-02-27T19:02:26.684Z,48.98
2018-02-27T19:04:55.454Z,49.15
2018-02-27T19:07:21.300Z,49.10
2018-02-27T19:09:50.153Z,49.40
2018-02-27T19:12:16.060Z,49.42
2018-02-27T19:14:44.895Z,49.17
2018-02-27T19:17:10.730Z,49.70
2018-02-27T19:19:36.580Z,49.40
2018-02-27T19:22:02.441Z,49.40
2018-02-27T19:24:28.275Z,49.95
2018-02-27T19:26:57.383Z,50.33
2018-02-27T19:29:23.204Z,49.77
2018-02-27T19:31:52.363Z,49.96
2018-02-27T19:34:18.193Z,50.16
2018-02-27T19:36:47.538Z,50.18
2018-02-27T19:39:15.872Z,50.35
2018-02-27T19:41:41.975Z,50.66
2018-02-27T19:44:07.841Z,50.55
2018-02-27T19:46:36.741Z,51.02
2018-02-27T19:49:02.580Z,51.25
2018-02-27T19:51:31.931Z,51.64
2018-02-27T19:53:57.777Z,51.71
2018-02-27T19:56:23.623Z,51.62
2018-02-27T19:58:49.469Z,51.78
2018-02-27T20:01:15.306Z,51.92
2018-02-27T20:03:41.824Z,51.81
2018-02-27T20:06:07.673Z,51.67
2018-02-27T20:11:04.516Z,52.19
2018-02-27T20:13:31.374Z,52.62
2018-02-27T20:15:57.221Z,52.97
2018-02-27T20:18:25.952Z,53.12
2018-02-27T20:20:51.800Z,53.31
2018-02-27T20:23:23.783Z,53.40
2018-02-27T20:25:49.667Z,53.74
2018-02-27T20:28:21.602Z,53.86
2018-02-27T20:30:47.478Z,53.79
2018-02-27T20:33:13.307Z,54.23
2018-02-27T20:35:39.145Z,54.77
2018-02-27T20:38:04.989Z,55.26
2018-02-27T20:40:30.879Z,55.45
2018-02-27T20:42:56.721Z,55.40
2018-02-27T20:45:22.572Z,55.33
2018-02-27T20:47:48.416Z,55.49
2018-02-27T20:50:17.338Z,55.65
2018-02-27T20:52:43.198Z,55.64
2018-02-27T20:55:12.697Z,56.05
2018-02-27T20:57:38.561Z,55.86
2018-02-27T21:00:07.862Z,56.28
2018-02-27T21:02:33.689Z,56.57
2018-02-27T21:05:01.358Z,56.79
2018-02-27T21:07:27.225Z,56.79
2018-02-27T21:09:53.311Z,56.69
2018-02-27T21:12:19.150Z,56.94
2018-02-27T21:14:45.006Z,57.05
2018-02-27T21:17:14.143Z,57.18
2018-02-27T21:19:40.048Z,57.24
2018-02-27T21:22:09.066Z,57.23
2018-02-27T21:24:37.146Z,57.84
2018-02-27T21:27:03.147Z,57.93
2018-02-27T21:29:29.030Z,57.42
2018-02-27T21:31:56.713Z,57.26
2018-02-27T21:34:22.560Z,57.36
2018-02-27T21:36:51.562Z,57.46
2018-02-27T21:39:17.412Z,57.38
2018-02-27T21:41:47.074Z,57.50
2018-02-27T21:44:12.893Z,57.76
2018-02-27T21:46:38.780Z,57.94
2018-02-27T21:49:04.630Z,58.00
2018-02-27T21:51:30.526Z,58.18
2018-02-27T21:53:57.886Z,58.06
2018-02-27T21:56:23.765Z,58.42
2018-02-27T21:58:52.442Z,58.75
2018-02-27T22:01:18.323Z,58.61
2018-02-27T22:03:46.955Z,58.71
2018-02-27T22:06:12.815Z,58.66
2018-02-27T22:11:09.519Z,58.55
2018-02-27T22:13:38.485Z,58.51
2018-02-27T22:16:04.362Z,58.58
2018-02-27T22:18:31.805Z,58.60
2018-02-27T22:20:57.655Z,58.86
2018-02-27T22:23:23.544Z,59.22
2018-02-27T22:25:49.402Z,59.20
2018-02-27T22:28:15.257Z,59.68
2018-02-27T22:30:43.040Z,59.73
2018-02-27T22:33:08.888Z,59.86
2018-02-27T22:38:05.625Z,59.62
2018-02-27T22:40:32.610Z,59.57
2018-02-27T22:42:58.457Z,59.33
2018-02-27T22:45:27.823Z,59.56
2018-02-27T22:47:53.666Z,59.83
2018-02-27T22:50:23.199Z,60.07
2018-02-27T22:52:49.052Z,60.35
2018-02-27T22:55:16.732Z,60.85
2018-02-27T23:00:35.950Z,60.69
2018-02-27T23:03:01.802Z,60.81
2018-02-27T23:05:27.676Z,61.02
2018-02-27T23:07:53.559Z,61.09
2018-02-27T23:10:19.431Z,61.09
2018-02-27T23:12:45.272Z,61.42
2018-02-27T23:15:11.102Z,61.59
2018-02-27T23:17:36.974Z,61.55
2018-02-27T23:20:02.844Z,61.43
2018-02-27T23:22:28.688Z,61.50
2018-02-27T23:28:02.137Z,61.99
2018-02-27T23:30:29.487Z,62.30
2018-02-27T23:32:57.233Z,62.39
2018-02-27T23:35:26.054Z,62.58
2018-02-27T23:37:51.901Z,62.30
2018-02-27T23:40:17.843Z,62.31
2018-02-27T23:42:43.687Z,62.08
2018-02-27T23:45:09.523Z,62.25
2018-02-27T23:47:35.397Z,62.10
2018-02-27T23:50:01.238Z,62.19
2018-02-27T23:52:27.077Z,62.04
2018-02-27T23:54:52.934Z,62.17
